Time;durP1;ratioP1;P1;durP2;ratioP2;P2;SDS_P1;SDS_P2;PMS_P1;PMS_P2;Temp;Humidity;BMP_temperature;BMP_pressure;BME280_temperature;BME280_humidity;BME280_pressure;Samples;Min_cycle;Max_cycle;Signal;HPM_P1;HPM_P2
2022/04/07 00:02:01;;;;;;;0.67;0.67;;;;;;;;;;4970547;28;20198;-68
2022/04/07 00:04:29;;;;;;;0.20;0.20;;;;;;;;;;4971835;28;20209;-67
2022/04/07 00:06:56;;;;;;;0.40;0.40;;;;;;;;;;4971117;28;20225;-67
2022/04/07 00:09:24;;;;;;;1.40;0.60;;;;;;;;;;4973659;28;20194;-67
2022/04/07 00:11:52;;;;;;;7.33;0.87;;;;;;;;;;4972075;28;20546;-67
2022/04/07 00:14:20;;;;;;;0.60;0.50;;;;;;;;;;4970470;28;20209;-67
2022/04/07 00:16:48;;;;;;;1.80;0.53;;;;;;;;;;4971827;28;20586;-68
2022/04/07 00:19:16;;;;;;;0.00;0.00;;;;;;;;;;4973724;28;20211;-66
2022/04/07 00:21:46;;;;;;;0.00;0.00;;;;;;;;;;4971610;28;20207;-67
2022/04/07 00:24:14;;;;;;;0.77;0.77;;;;;;;;;;4972907;28;20209;-66
2022/04/07 00:26:41;;;;;;;1.93;0.90;;;;;;;;;;4971909;28;20304;-68
2022/04/07 00:29:09;;;;;;;7.67;2.00;;;;;;;;;;4958320;28;20371;-67
2022/04/07 00:31:40;;;;;;;0.43;0.43;;;;;;;;;;4969328;28;20660;-68
2022/04/07 00:34:08;;;;;;;2.23;0.73;;;;;;;;;;4970806;28;20209;-67
2022/04/07 00:36:36;;;;;;;1.00;0.87;;;;;;;;;;4970356;28;20202;-67
2022/04/07 00:39:04;;;;;;;0.43;0.40;;;;;;;;;;4972922;28;20203;-68
2022/04/07 00:41:31;;;;;;;0.07;0.07;;;;;;;;;;4971695;28;20202;-67
2022/04/07 00:43:59;;;;;;;3.87;0.37;;;;;;;;;;4973158;28;20198;-68
2022/04/07 00:46:26;;;;;;;1.40;0.43;;;;;;;;;;4972996;28;20202;-67
2022/04/07 00:48:54;;;;;;;16.43;2.10;;;;;;;;;;4972027;28;20209;-69
2022/04/07 00:51:22;;;;;;;0.60;0.40;;;;;;;;;;4970579;28;20229;-67
2022/04/07 00:53:50;;;;;;;3.30;0.10;;;;;;;;;;4970859;28;20203;-65
2022/04/07 00:56:17;;;;;;;6.80;1.23;;;;;;;;;;4970419;28;20659;-68
2022/04/07 00:58:47;;;;;;;3.40;0.67;;;;;;;;;;4959233;28;20336;-67
2022/04/07 01:01:14;;;;;;;1.47;0.80;;;;;;;;;;4971544;28;20206;-66
2022/04/07 01:03:43;;;;;;;0.90;0.70;;;;;;;;;;4972912;28;20198;-67
2022/04/07 01:06:10;;;;;;;1.93;0.90;;;;;;;;;;4970373;28;20209;-66
2022/04/07 01:08:39;;;;;;;0.97;0.73;;;;;;;;;;4971173;28;20288;-66
2022/04/07 01:11:07;;;;;;;1.50;1.07;;;;;;;;;;4970799;28;20202;-67
2022/04/07 01:13:44;;;;;;;1.47;0.20;;;;;;;;;;4969583;28;20675;-67
2022/04/07 01:16:12;;;;;;;6.63;1.50;;;;;;;;;;4972370;28;20231;-66
2022/04/07 01:18:40;;;;;;;0.50;0.10;;;;;;;;;;4971234;28;20570;-67
2022/04/07 01:21:09;;;;;;;0.83;0.73;;;;;;;;;;4969850;28;20726;-67
2022/04/07 01:23:40;;;;;;;0.40;0.40;;;;;;;;;;4971334;28;20210;-67
2022/04/07 01:26:10;;;;;;;5.83;1.90;;;;;;;;;;4959803;28;20206;-69
2022/04/07 01:28:38;;;;;;;0.27;0.27;;;;;;;;;;4961461;28;21056;-69
2022/04/07 01:31:06;;;;;;;1.90;0.77;;;;;;;;;;4965343;28;20641;-68
2022/04/07 01:33:34;;;;;;;9.90;1.70;;;;;;;;;;4966989;28;20222;-67
2022/04/07 01:36:02;;;;;;;1.53;1.17;;;;;;;;;;4971738;28;20202;-67
2022/04/07 01:38:29;;;;;;;8.27;2.17;;;;;;;;;;4970525;28;20229;-67
2022/04/07 01:40:57;;;;;;;14.83;3.70;;;;;;;;;;4971977;28;20253;-66
2022/04/07 01:43:27;;;;;;;1.20;0.60;;;;;;;;;;4970508;28;20217;-67
2022/04/07 01:45:54;;;;;;;1.30;1.00;;;;;;;;;;4970026;28;20281;-67
2022/04/07 01:48:22;;;;;;;5.53;1.43;;;;;;;;;;4969608;28;20225;-67
2022/04/07 01:50:51;;;;;;;1.70;0.67;;;;;;;;;;4971555;28;20209;-81
2022/04/07 01:53:19;;;;;;;0.30;0.20;;;;;;;;;;4970488;28;20254;-70
2022/04/07 01:55:47;;;;;;;10.27;1.43;;;;;;;;;;4970169;28;20202;-67
2022/04/07 01:58:18;;;;;;;0.97;0.63;;;;;;;;;;4971242;28;20633;-67
2022/04/07 02:00:47;;;;;;;4.27;1.53;;;;;;;;;;4970020;28;20217;-67
2022/04/07 02:03:14;;;;;;;4.17;1.50;;;;;;;;;;4971636;28;20218;-68
2022/04/07 02:05:42;;;;;;;4.20;0.50;;;;;;;;;;4969475;28;20213;-68
2022/04/07 02:08:09;;;;;;;4.77;1.20;;;;;;;;;;4970465;28;20230;-68
2022/04/07 02:10:37;;;;;;;2.30;1.13;;;;;;;;;;4970859;28;20289;-70
2022/04/07 02:13:04;;;;;;;3.23;0.27;;;;;;;;;;4967895;28;20262;-66
2022/04/07 02:15:32;;;;;;;3.27;1.07;;;;;;;;;;4969032;28;20208;-68
2022/04/07 02:18:01;;;;;;;4.40;2.13;;;;;;;;;;4969966;28;20238;-68
2022/04/07 02:20:29;;;;;;;3.93;1.03;;;;;;;;;;4971055;28;20241;-65
2022/04/07 02:22:57;;;;;;;0.73;0.73;;;;;;;;;;4970585;28;20597;-66
2022/04/07 02:25:27;;;;;;;2.93;1.07;;;;;;;;;;4969844;28;20206;-68
2022/04/07 02:27:55;;;;;;;1.17;0.60;;;;;;;;;;4970833;28;20306;-68
2022/04/07 02:30:23;;;;;;;3.30;0.60;;;;;;;;;;4970972;28;20214;-68
2022/04/07 02:32:50;;;;;;;2.90;1.43;;;;;;;;;;4972682;28;20198;-68
2022/04/07 02:35:19;;;;;;;4.10;1.43;;;;;;;;;;4974835;28;20202;-68
2022/04/07 02:37:46;;;;;;;0.90;0.20;;;;;;;;;;4974183;28;20202;-68
2022/04/07 02:40:14;;;;;;;3.00;0.33;;;;;;;;;;4973474;28;20578;-69
2022/04/07 02:42:41;;;;;;;2.63;0.87;;;;;;;;;;4975055;28;20198;-67
2022/04/07 02:45:09;;;;;;;2.33;1.10;;;;;;;;;;4973996;28;20653;-68
2022/04/07 02:47:38;;;;;;;4.80;1.07;;;;;;;;;;4973354;28;20230;-67
2022/04/07 02:50:06;;;;;;;0.03;0.03;;;;;;;;;;4973812;28;20199;-68
2022/04/07 02:52:35;;;;;;;3.83;1.33;;;;;;;;;;4974193;28;20719;-68
2022/04/07 02:55:03;;;;;;;0.33;0.10;;;;;;;;;;4971110;28;20202;-68
2022/04/07 02:57:31;;;;;;;8.80;2.00;;;;;;;;;;4972042;28;20233;-65
2022/04/07 02:59:59;;;;;;;3.17;0.47;;;;;;;;;;4972884;28;20668;-69
2022/04/07 03:02:26;;;;;;;4.37;1.70;;;;;;;;;;4973150;28;20281;-68
2022/04/07 03:04:54;;;;;;;6.13;0.90;;;;;;;;;;4973838;28;20206;-68
2022/04/07 03:07:21;;;;;;;0.10;0.10;;;;;;;;;;4971529;28;20198;-68
2022/04/07 03:09:50;;;;;;;0.10;0.10;;;;;;;;;;4974560;28;20663;-67
2022/04/07 03:12:17;;;;;;;3.47;1.47;;;;;;;;;;4972684;28;20209;-68
2022/04/07 03:14:45;;;;;;;2.73;1.37;;;;;;;;;;4972232;28;20210;-67
2022/04/07 03:17:12;;;;;;;0.50;0.50;;;;;;;;;;4968139;28;20198;-67
2022/04/07 03:19:40;;;;;;;3.10;0.83;;;;;;;;;;4974596;28;20233;-68
2022/04/07 03:22:07;;;;;;;1.73;0.60;;;;;;;;;;4973882;28;20207;-68
2022/04/07 03:24:34;;;;;;;4.07;1.00;;;;;;;;;;4968693;28;20206;-68
2022/04/07 03:27:06;;;;;;;3.47;1.37;;;;;;;;;;4973470;28;20220;-68
2022/04/07 03:29:34;;;;;;;8.90;0.63;;;;;;;;;;4970192;28;20222;-68
2022/04/07 03:32:01;;;;;;;9.70;2.03;;;;;;;;;;4973828;28;20302;-68
2022/04/07 03:34:29;;;;;;;8.10;2.03;;;;;;;;;;4971634;28;20290;-67
2022/04/07 03:36:56;;;;;;;0.70;0.10;;;;;;;;;;4973080;28;20206;-69
2022/04/07 03:39:24;;;;;;;0.97;0.60;;;;;;;;;;4972978;28;20202;-68
2022/04/07 03:41:51;;;;;;;0.40;0.40;;;;;;;;;;4971633;28;20206;-67
2022/04/07 03:44:20;;;;;;;0.77;0.77;;;;;;;;;;4970601;28;20277;-68
2022/04/07 03:46:48;;;;;;;1.50;0.43;;;;;;;;;;4973588;28;20214;-68
2022/04/07 03:49:15;;;;;;;2.70;0.97;;;;;;;;;;4973469;28;20252;-68
2022/04/07 03:51:42;;;;;;;0.57;0.57;;;;;;;;;;4972943;28;20207;-68
2022/04/07 03:54:10;;;;;;;0.60;0.33;;;;;;;;;;4972813;28;20199;-68
2022/04/07 03:56:38;;;;;;;2.23;0.93;;;;;;;;;;4973497;28;20198;-68
2022/04/07 03:59:05;;;;;;;2.43;1.20;;;;;;;;;;4969674;28;20606;-66
2022/04/07 04:01:35;;;;;;;3.10;0.53;;;;;;;;;;4973344;28;20202;-68
2022/04/07 04:04:02;;;;;;;1.33;1.00;;;;;;;;;;4972157;28;20672;-69
2022/04/07 04:06:30;;;;;;;0.47;0.40;;;;;;;;;;4973477;28;20198;-68
2022/04/07 04:08:57;;;;;;;0.30;0.30;;;;;;;;;;4972088;28;20553;-67
2022/04/07 04:11:25;;;;;;;6.33;0.73;;;;;;;;;;4971699;28;20203;-67
2022/04/07 04:13:53;;;;;;;2.10;0.40;;;;;;;;;;4968191;28;20232;-69
2022/04/07 04:16:21;;;;;;;3.10;1.23;;;;;;;;;;4971685;28;20206;-67
2022/04/07 04:18:50;;;;;;;1.90;0.63;;;;;;;;;;4972834;28;20571;-67
2022/04/07 04:21:17;;;;;;;0.67;0.67;;;;;;;;;;4971463;28;20552;-67
2022/04/07 04:23:44;;;;;;;1.30;0.73;;;;;;;;;;4971746;28;20198;-67
2022/04/07 04:26:12;;;;;;;2.23;0.60;;;;;;;;;;4971393;28;20561;-67
2022/04/07 04:28:39;;;;;;;0.53;0.53;;;;;;;;;;4971912;28;20226;-67
2022/04/07 04:31:06;;;;;;;2.33;0.73;;;;;;;;;;4972491;28;20206;-67
2022/04/07 04:33:34;;;;;;;1.50;0.47;;;;;;;;;;4970164;28;20199;-67
2022/04/07 04:36:03;;;;;;;3.10;0.43;;;;;;;;;;4971900;28;20587;-68
2022/04/07 04:38:30;;;;;;;6.20;0.83;;;;;;;;;;4970151;28;20209;-68
2022/04/07 04:40:57;;;;;;;2.73;0.90;;;;;;;;;;4954860;28;20214;-68
2022/04/07 04:43:25;;;;;;;0.83;0.20;;;;;;;;;;4971635;28;20210;-67
2022/04/07 04:45:52;;;;;;;3.03;1.27;;;;;;;;;;4970581;28;20195;-67
2022/04/07 04:48:20;;;;;;;0.30;0.13;;;;;;;;;;4969293;28;20234;-68
2022/04/07 04:50:48;;;;;;;0.50;0.50;;;;;;;;;;4971416;28;20209;-68
2022/04/07 04:53:17;;;;;;;0.20;0.20;;;;;;;;;;4968914;28;20203;-68
2022/04/07 04:55:44;;;;;;;1.13;0.70;;;;;;;;;;4971245;28;20563;-70
2022/04/07 04:58:11;;;;;;;3.50;0.90;;;;;;;;;;4970484;28;20711;-68
2022/04/07 05:00:39;;;;;;;1.70;0.40;;;;;;;;;;4968621;28;20217;-68
2022/04/07 05:03:06;;;;;;;0.33;0.33;;;;;;;;;;4970393;28;20212;-68
2022/04/07 05:05:34;;;;;;;2.10;0.77;;;;;;;;;;4973020;28;20683;-67
2022/04/07 05:08:01;;;;;;;0.00;0.00;;;;;;;;;;4971536;28;20218;-67
2022/04/07 05:10:30;;;;;;;0.80;0.47;;;;;;;;;;4970518;28;20647;-67
2022/04/07 05:12:58;;;;;;;0.70;0.50;;;;;;;;;;4968487;28;20931;-69
2022/04/07 05:15:26;;;;;;;1.30;1.20;;;;;;;;;;4972189;28;20264;-68
2022/04/07 05:17:53;;;;;;;0.43;0.43;;;;;;;;;;4967881;28;20277;-68
2022/04/07 05:20:21;;;;;;;1.17;0.67;;;;;;;;;;4971974;28;20643;-69
2022/04/07 05:22:49;;;;;;;0.20;0.10;;;;;;;;;;4971842;28;20206;-77
2022/04/07 05:25:16;;;;;;;0.00;0.00;;;;;;;;;;4972256;28;20289;-70
2022/04/07 05:27:45;;;;;;;0.00;0.00;;;;;;;;;;4969322;28;20701;-69
2022/04/07 05:30:15;;;;;;;0.00;0.00;;;;;;;;;;4972172;28;20230;-70
2022/04/07 05:32:43;;;;;;;0.00;0.00;;;;;;;;;;4972114;28;20212;-69
2022/04/07 05:35:10;;;;;;;0.00;0.00;;;;;;;;;;4970485;28;20245;-70
2022/04/07 05:37:38;;;;;;;0.00;0.00;;;;;;;;;;4970595;28;20206;-73
2022/04/07 05:40:06;;;;;;;0.00;0.00;;;;;;;;;;4972577;28;20289;-70
2022/04/07 05:42:33;;;;;;;0.00;0.00;;;;;;;;;;4971994;28;20210;-69
2022/04/07 05:45:02;;;;;;;0.00;0.00;;;;;;;;;;4971620;28;20621;-72
2022/04/07 05:47:29;;;;;;;0.00;0.00;;;;;;;;;;4970656;28;20289;-70
2022/04/07 05:49:57;;;;;;;0.00;0.00;;;;;;;;;;4971518;28;20793;-72
2022/04/07 05:52:25;;;;;;;0.00;0.00;;;;;;;;;;4972233;28;20706;-71
2022/04/07 05:54:52;;;;;;;0.00;0.00;;;;;;;;;;4972385;28;20206;-71
2022/04/07 05:57:22;;;;;;;0.00;0.00;;;;;;;;;;4967951;28;20233;-71
2022/04/07 05:59:49;;;;;;;0.00;0.00;;;;;;;;;;4972530;28;20233;-70
2022/04/07 06:02:18;;;;;;;0.00;0.00;;;;;;;;;;4970689;28;20210;-70
2022/04/07 06:04:46;;;;;;;0.00;0.00;;;;;;;;;;4971247;28;20293;-70
2022/04/07 06:07:13;;;;;;;0.00;0.00;;;;;;;;;;4969749;28;20203;-70
2022/04/07 06:09:40;;;;;;;0.00;0.00;;;;;;;;;;4973562;28;20226;-70
2022/04/07 06:12:09;;;;;;;0.00;0.00;;;;;;;;;;4975276;28;20577;-69
2022/04/07 06:14:36;;;;;;;0.00;0.00;;;;;;;;;;4972747;28;20210;-70
2022/04/07 06:17:04;;;;;;;0.00;0.00;;;;;;;;;;4970873;28;20289;-70
2022/04/07 06:19:33;;;;;;;0.00;0.00;;;;;;;;;;4975439;28;20209;-70
2022/04/07 06:22:00;;;;;;;0.00;0.00;;;;;;;;;;4973765;28;20211;-70
2022/04/07 06:24:28;;;;;;;0.00;0.00;;;;;;;;;;4975191;28;20577;-70
2022/04/07 06:26:55;;;;;;;0.00;0.00;;;;;;;;;;4973100;28;20210;-69
2022/04/07 06:29:23;;;;;;;0.00;0.00;;;;;;;;;;4971962;28;20254;-70
2022/04/07 06:31:50;;;;;;;0.00;0.00;;;;;;;;;;4971281;28;20221;-70
2022/04/07 06:34:18;;;;;;;0.00;0.00;;;;;;;;;;4974230;28;20785;-73
2022/04/07 06:36:47;;;;;;;0.00;0.00;;;;;;;;;;4965249;28;20210;-70
2022/04/07 06:39:14;;;;;;;0.00;0.00;;;;;;;;;;4973886;28;20625;-72
2022/04/07 06:41:42;;;;;;;0.00;0.00;;;;;;;;;;4971395;28;20206;-70
2022/04/07 06:44:09;;;;;;;0.00;0.00;;;;;;;;;;4971435;28;20229;-72
2022/04/07 06:46:36;;;;;;;0.00;0.00;;;;;;;;;;4972140;28;20202;-69
2022/04/07 06:49:05;;;;;;;0.00;0.00;;;;;;;;;;4973729;28;20230;-70
2022/04/07 06:51:32;;;;;;;0.00;0.00;;;;;;;;;;4973968;28;20575;-70
2022/04/07 06:54:01;;;;;;;0.00;0.00;;;;;;;;;;4972397;28;20561;-70
2022/04/07 06:56:28;;;;;;;0.00;0.00;;;;;;;;;;4972201;28;20207;-70
2022/04/07 06:58:56;;;;;;;0.00;0.00;;;;;;;;;;4972617;28;20226;-70
2022/04/07 07:01:23;;;;;;;0.00;0.00;;;;;;;;;;4968228;28;20209;-72
2022/04/07 07:03:51;;;;;;;0.00;0.00;;;;;;;;;;4968276;28;20318;-70
2022/04/07 07:06:18;;;;;;;0.00;0.00;;;;;;;;;;4967350;28;20210;-74
2022/04/07 07:08:46;;;;;;;0.00;0.00;;;;;;;;;;4966362;28;20285;-70
2022/04/07 07:11:14;;;;;;;0.00;0.00;;;;;;;;;;4958120;28;20210;-69
2022/04/07 07:13:42;;;;;;;0.00;0.00;;;;;;;;;;4965992;28;20207;-71
2022/04/07 07:16:09;;;;;;;0.00;0.00;;;;;;;;;;4963657;28;20206;-69
2022/04/07 07:18:38;;;;;;;0.00;0.00;;;;;;;;;;4963890;28;20207;-70
2022/04/07 07:21:06;;;;;;;0.00;0.00;;;;;;;;;;4961709;28;20211;-69
2022/04/07 07:23:33;;;;;;;0.00;0.00;;;;;;;;;;4963531;28;20202;-71
2022/04/07 07:26:00;;;;;;;0.00;0.00;;;;;;;;;;4965013;28;20199;-69
2022/04/07 07:28:29;;;;;;;0.00;0.00;;;;;;;;;;4963649;28;20253;-69
2022/04/07 07:30:59;;;;;;;0.00;0.00;;;;;;;;;;4964852;28;20214;-69
2022/04/07 07:33:27;;;;;;;0.00;0.00;;;;;;;;;;4964080;28;20213;-68
2022/04/07 07:35:54;;;;;;;0.00;0.00;;;;;;;;;;4963430;28;20211;-70
2022/04/07 07:38:23;;;;;;;0.00;0.00;;;;;;;;;;4963529;28;20214;-70
2022/04/07 07:40:50;;;;;;;0.00;0.00;;;;;;;;;;4961384;28;20265;-70
2022/04/07 07:43:18;;;;;;;0.00;0.00;;;;;;;;;;4963692;28;20218;-69
2022/04/07 07:45:46;;;;;;;0.00;0.00;;;;;;;;;;4963326;28;20210;-69
2022/04/07 07:48:14;;;;;;;0.00;0.00;;;;;;;;;;4962415;28;20214;-69
2022/04/07 07:50:45;;;;;;;0.00;0.00;;;;;;;;;;4962818;28;20725;-71
2022/04/07 07:53:14;;;;;;;0.00;0.00;;;;;;;;;;4963294;28;20210;-68
2022/04/07 07:55:41;;;;;;;0.00;0.00;;;;;;;;;;4961960;28;20211;-68
2022/04/07 07:58:09;;;;;;;0.00;0.00;;;;;;;;;;4962080;28;20233;-66
2022/04/07 08:00:36;;;;;;;0.00;0.00;;;;;;;;;;4964692;28;20215;-67
2022/04/07 08:03:05;;;;;;;0.00;0.00;;;;;;;;;;4963655;28;20668;-67
2022/04/07 08:05:33;;;;;;;0.00;0.00;;;;;;;;;;4965488;28;20206;-67
2022/04/07 08:08:00;;;;;;;0.00;0.00;;;;;;;;;;4961982;28;20214;-67
2022/04/07 08:10:28;;;;;;;0.00;0.00;;;;;;;;;;4960961;28;20229;-69
2022/04/07 08:12:57;;;;;;;0.00;0.00;;;;;;;;;;4962907;28;20214;-66
2022/04/07 08:15:25;;;;;;;0.00;0.00;;;;;;;;;;4964902;28;20202;-67
2022/04/07 08:17:52;;;;;;;0.00;0.00;;;;;;;;;;4963315;28;20210;-68
2022/04/07 08:20:21;;;;;;;0.00;0.00;;;;;;;;;;4961477;28;20206;-67
2022/04/07 08:22:48;;;;;;;0.00;0.00;;;;;;;;;;4963707;28;20206;-67
2022/04/07 08:25:16;;;;;;;0.00;0.00;;;;;;;;;;4964627;28;20301;-68
2022/04/07 08:27:43;;;;;;;0.00;0.00;;;;;;;;;;4960199;28;20223;-67
2022/04/07 08:30:11;;;;;;;2.10;0.73;;;;;;;;;;4961270;28;20301;-66
2022/04/07 08:32:39;;;;;;;3.20;1.50;;;;;;;;;;4962897;28;20225;-67
2022/04/07 08:35:09;;;;;;;1.50;0.50;;;;;;;;;;4960119;28;20672;-66
2022/04/07 08:37:39;;;;;;;2.33;1.00;;;;;;;;;;4961441;28;20300;-67
2022/04/07 08:40:07;;;;;;;1.20;0.80;;;;;;;;;;4962200;28;20213;-65
2022/04/07 08:42:35;;;;;;;2.30;0.80;;;;;;;;;;4961153;28;20217;-69
2022/04/07 08:45:03;;;;;;;4.23;1.23;;;;;;;;;;4962853;28;20199;-66
2022/04/07 08:47:30;;;;;;;3.73;1.50;;;;;;;;;;4960586;28;20222;-66
2022/04/07 08:49:58;;;;;;;2.23;0.40;;;;;;;;;;4960988;28;20345;-69
2022/04/07 08:52:26;;;;;;;0.73;0.70;;;;;;;;;;4963713;28;20603;-66
2022/04/07 08:54:55;;;;;;;8.27;1.20;;;;;;;;;;4968151;28;20578;-66
2022/04/07 08:57:24;;;;;;;1.03;0.63;;;;;;;;;;4960293;28;20245;-70
2022/04/07 08:59:51;;;;;;;3.70;1.13;;;;;;;;;;4972505;28;20209;-66
2022/04/07 09:02:18;;;;;;;4.47;1.53;;;;;;;;;;4969878;28;20206;-68
2022/04/07 09:04:46;;;;;;;0.40;0.40;;;;;;;;;;4971426;28;20213;-67
2022/04/07 09:07:15;;;;;;;0.83;0.60;;;;;;;;;;4969873;28;20229;-67
2022/04/07 09:09:42;;;;;;;2.27;0.53;;;;;;;;;;4966924;28;20226;-65
2022/04/07 09:12:11;;;;;;;2.40;1.07;;;;;;;;;;4967110;28;20210;-66
2022/04/07 09:14:40;;;;;;;2.87;0.90;;;;;;;;;;4966058;28;20210;-67
2022/04/07 09:17:08;;;;;;;4.73;1.43;;;;;;;;;;4962706;28;20194;-65
2022/04/07 09:19:37;;;;;;;3.63;1.23;;;;;;;;;;4962900;28;20210;-66
2022/04/07 09:22:09;;;;;;;0.10;0.10;;;;;;;;;;4964719;28;20579;-65
2022/04/07 09:24:37;;;;;;;0.83;0.67;;;;;;;;;;4969035;28;20206;-67
2022/04/07 09:27:05;;;;;;;1.23;0.77;;;;;;;;;;4966240;28;20232;-67
2022/04/07 09:29:41;;;;;;;2.77;0.93;;;;;;;;;;4969631;28;20285;-64
2022/04/07 09:32:19;;;;;;;0.83;0.57;;;;;;;;;;4967243;28;20198;-64
2022/04/07 09:34:47;;;;;;;1.57;0.63;;;;;;;;;;4971362;28;20289;-66
2022/04/07 09:37:15;;;;;;;6.80;1.67;;;;;;;;;;4970844;28;20204;-67
2022/04/07 09:39:44;;;;;;;0.33;0.33;;;;;;;;;;4972076;28;20579;-66
2022/04/07 09:42:25;;;;;;;5.10;1.33;;;;;;;;;;4972121;28;20202;-67
2022/04/07 09:44:57;;;;;;;4.57;0.90;;;;;;;;;;4975576;28;20198;-67
2022/04/07 09:47:24;;;;;;;9.63;0.73;;;;;;;;;;4966532;28;20202;-71
2022/04/07 09:49:52;;;;;;;3.90;1.10;;;;;;;;;;4975146;28;20725;-67
2022/04/07 09:52:22;;;;;;;5.37;1.00;;;;;;;;;;4970381;28;20575;-69
2022/04/07 09:54:51;;;;;;;3.00;0.77;;;;;;;;;;4971658;28;20213;-68
2022/04/07 09:57:20;;;;;;;2.17;1.30;;;;;;;;;;4971661;28;20266;-68
2022/04/07 09:59:48;;;;;;;8.47;1.13;;;;;;;;;;4974502;28;20206;-68
2022/04/07 10:02:17;;;;;;;2.10;1.10;;;;;;;;;;4974817;28;20678;-66
2022/04/07 10:04:45;;;;;;;2.40;1.60;;;;;;;;;;4975173;28;20206;-68
2022/04/07 10:07:12;;;;;;;3.07;1.13;;;;;;;;;;4971623;28;20282;-69
2022/04/07 10:09:46;;;;;;;7.33;1.27;;;;;;;;;;4974435;28;21586;-68
2022/04/07 10:12:13;;;;;;;12.80;2.27;;;;;;;;;;4974873;28;20301;-68
2022/04/07 10:14:41;;;;;;;5.43;0.53;;;;;;;;;;4973636;28;20290;-67
2022/04/07 10:17:13;;;;;;;4.93;1.43;;;;;;;;;;4970856;28;20198;-67
2022/04/07 10:19:52;;;;;;;1.70;1.37;;;;;;;;;;4974854;28;20217;-68
2022/04/07 10:22:26;;;;;;;9.60;1.00;;;;;;;;;;4973952;28;20261;-67
2022/04/07 10:24:56;;;;;;;8.60;1.40;;;;;;;;;;4968285;28;20220;-68
2022/04/07 10:27:25;;;;;;;3.30;0.73;;;;;;;;;;4967575;28;20578;-69
2022/04/07 10:30:06;;;;;;;8.47;2.13;;;;;;;;;;4975058;28;20238;-69
2022/04/07 10:32:38;;;;;;;1.37;0.63;;;;;;;;;;4959177;28;20213;-66
2022/04/07 10:35:07;;;;;;;7.03;2.07;;;;;;;;;;4974037;28;20239;-67
2022/04/07 10:37:45;;;;;;;11.57;1.43;;;;;;;;;;4973972;28;20260;-66
2022/04/07 10:40:31;;;;;;;8.33;1.40;;;;;;;;;;4975351;28;20273;-68
2022/04/07 10:43:10;;;;;;;4.90;1.33;;;;;;;;;;4961690;28;20203;-70
2022/04/07 10:45:38;;;;;;;9.03;1.60;;;;;;;;;;4973170;28;20250;-69
2022/04/07 10:48:29;;;;;;;5.57;2.60;;;;;;;;;;4974891;28;20233;-68
2022/04/07 10:51:01;;;;;;;3.00;1.17;;;;;;;;;;4974422;28;20703;-68
2022/04/07 10:53:30;;;;;;;2.73;1.53;;;;;;;;;;4971820;28;20690;-68
2022/04/07 10:55:59;;;;;;;4.17;1.57;;;;;;;;;;4974066;28;20317;-71
2022/04/07 10:58:42;;;;;;;10.47;1.90;;;;;;;;;;4974153;28;20238;-68
2022/04/07 11:01:14;;;;;;;6.30;1.33;;;;;;;;;;4971577;28;20309;-69
2022/04/07 11:03:42;;;;;;;3.13;1.03;;;;;;;;;;4972768;28;20614;-69
2022/04/07 11:06:12;;;;;;;6.07;2.33;;;;;;;;;;4974272;28;20209;-69
2022/04/07 11:08:39;;;;;;;3.97;1.57;;;;;;;;;;4969738;28;20623;-70
2022/04/07 11:11:08;;;;;;;3.93;1.27;;;;;;;;;;4958122;28;20240;-69
2022/04/07 11:13:48;;;;;;;4.23;1.20;;;;;;;;;;4972171;28;20202;-70
2022/04/07 11:16:19;;;;;;;2.33;1.00;;;;;;;;;;4967646;28;20779;-70
2022/04/07 11:18:52;;;;;;;14.57;3.13;;;;;;;;;;4964978;28;20207;-70
2022/04/07 11:21:22;;;;;;;5.10;1.73;;;;;;;;;;4961038;28;20245;-70
2022/04/07 11:23:53;;;;;;;2.63;1.53;;;;;;;;;;4973868;28;20202;-70
2022/04/07 11:26:22;;;;;;;5.37;1.63;;;;;;;;;;4972720;28;21094;-67
2022/04/07 11:29:08;;;;;;;2.23;1.20;;;;;;;;;;4970066;28;20574;-77
2022/04/07 11:31:53;;;;;;;11.87;2.20;;;;;;;;;;4972765;28;20234;-69
2022/04/07 11:34:38;;;;;;;4.10;1.27;;;;;;;;;;4973615;28;20201;-68
2022/04/07 11:37:08;;;;;;;3.67;1.53;;;;;;;;;;4966716;28;20729;-69
2022/04/07 11:39:39;;;;;;;3.23;1.23;;;;;;;;;;4971562;28;20216;-69
2022/04/07 11:42:07;;;;;;;5.90;1.97;;;;;;;;;;4973523;28;20206;-70
2022/04/07 11:44:34;;;;;;;7.17;2.23;;;;;;;;;;4971839;28;20202;-69
2022/04/07 11:47:02;;;;;;;3.53;0.83;;;;;;;;;;4973326;28;20282;-70
2022/04/07 11:49:29;;;;;;;4.87;1.47;;;;;;;;;;4972314;28;20202;-70
2022/04/07 11:51:57;;;;;;;7.27;2.40;;;;;;;;;;4973545;28;20336;-70
2022/04/07 11:54:26;;;;;;;6.37;1.47;;;;;;;;;;4973240;28;20213;-70
2022/04/07 11:56:53;;;;;;;16.80;2.00;;;;;;;;;;4972155;28;20206;-70
2022/04/07 11:59:21;;;;;;;11.17;1.30;;;;;;;;;;4971006;28;20232;-70
2022/04/07 12:01:50;;;;;;;3.10;1.27;;;;;;;;;;4973270;28;20568;-70
2022/04/07 12:04:17;;;;;;;9.90;1.80;;;;;;;;;;4973826;28;20206;-69
2022/04/07 12:06:46;;;;;;;6.03;1.27;;;;;;;;;;4972436;28;20202;-70
2022/04/07 12:09:14;;;;;;;5.87;1.73;;;;;;;;;;4969079;28;20202;-69
2022/04/07 12:11:44;;;;;;;8.67;1.33;;;;;;;;;;4971987;28;21724;-70
2022/04/07 12:14:15;;;;;;;5.97;1.87;;;;;;;;;;4972795;28;20292;-70
2022/04/07 12:16:46;;;;;;;5.93;1.93;;;;;;;;;;4973462;28;20248;-69
2022/04/07 12:19:14;;;;;;;17.90;2.40;;;;;;;;;;4972657;28;20206;-70
2022/04/07 12:21:55;;;;;;;8.27;1.40;;;;;;;;;;4973431;28;20265;-69
2022/04/07 12:24:23;;;;;;;9.87;1.97;;;;;;;;;;4973791;28;20213;-69
2022/04/07 12:26:52;;;;;;;11.83;2.50;;;;;;;;;;4973427;28;20205;-70
2022/04/07 12:29:21;;;;;;;7.10;2.27;;;;;;;;;;4972425;28;20202;-69
2022/04/07 12:31:58;;;;;;;7.30;1.20;;;;;;;;;;4972387;28;20249;-69
2022/04/07 12:34:26;;;;;;;3.30;1.87;;;;;;;;;;4973593;28;20201;-70
2022/04/07 12:36:53;;;;;;;3.67;1.10;;;;;;;;;;4973096;28;20202;-69
2022/04/07 12:39:21;;;;;;;6.40;1.77;;;;;;;;;;4972164;28;20206;-70
2022/04/07 12:41:51;;;;;;;4.30;1.40;;;;;;;;;;4973212;28;20199;-69
2022/04/07 12:44:21;;;;;;;3.90;2.10;;;;;;;;;;4971840;28;20254;-74
2022/04/07 12:46:52;;;;;;;2.40;1.07;;;;;;;;;;4953916;29;20249;-69
2022/04/07 12:49:26;;;;;;;5.53;1.90;;;;;;;;;;4964750;28;20616;-70
2022/04/07 12:52:04;;;;;;;16.50;2.33;;;;;;;;;;4971798;28;20253;-69
2022/04/07 12:54:32;;;;;;;3.87;1.30;;;;;;;;;;4971466;28;20213;-69
2022/04/07 12:57:19;;;;;;;10.17;3.03;;;;;;;;;;4970974;28;20202;-70
2022/04/07 12:59:56;;;;;;;9.70;2.57;;;;;;;;;;4969265;28;20270;-72
2022/04/07 13:02:24;;;;;;;13.83;3.53;;;;;;;;;;4971354;28;20289;-70
2022/04/07 13:04:54;;;;;;;6.50;2.93;;;;;;;;;;4970550;28;20209;-69
2022/04/07 13:07:22;;;;;;;10.97;2.20;;;;;;;;;;4969649;28;20681;-70
2022/04/07 13:09:51;;;;;;;9.73;2.37;;;;;;;;;;4971241;28;20195;-69
2022/04/07 13:12:18;;;;;;;15.80;2.50;;;;;;;;;;4971060;28;20719;-72
2022/04/07 13:14:46;;;;;;;4.47;1.57;;;;;;;;;;4971420;28;20209;-69
2022/04/07 13:17:15;;;;;;;5.47;2.17;;;;;;;;;;4971486;28;20650;-69
2022/04/07 13:19:43;;;;;;;11.80;3.23;;;;;;;;;;4972361;28;20198;-70
2022/04/07 13:22:11;;;;;;;10.13;3.67;;;;;;;;;;4966388;28;20226;-68
2022/04/07 13:24:38;;;;;;;12.63;3.13;;;;;;;;;;4965395;28;20206;-71
2022/04/07 13:27:06;;;;;;;14.17;3.83;;;;;;;;;;4971221;28;20623;-70
2022/04/07 13:29:36;;;;;;;6.90;2.60;;;;;;;;;;4969367;28;20203;-73
2022/04/07 13:32:03;;;;;;;17.80;3.27;;;;;;;;;;4964006;28;20269;-71
2022/04/07 13:34:32;;;;;;;11.40;2.07;;;;;;;;;;4970971;28;20222;-70
2022/04/07 13:37:00;;;;;;;6.90;2.73;;;;;;;;;;4971560;28;20207;-69
2022/04/07 13:39:27;;;;;;;6.53;2.03;;;;;;;;;;4970324;28;20288;-71
2022/04/07 13:41:55;;;;;;;10.53;2.00;;;;;;;;;;4969972;28;20672;-69
2022/04/07 13:44:22;;;;;;;9.13;2.13;;;;;;;;;;4968693;28;20289;-69
2022/04/07 13:46:50;;;;;;;6.07;2.03;;;;;;;;;;4969996;28;20210;-74
2022/04/07 13:49:17;;;;;;;26.97;3.43;;;;;;;;;;4971120;28;20700;-70
2022/04/07 13:51:46;;;;;;;7.50;2.87;;;;;;;;;;4971004;28;20240;-70
2022/04/07 13:54:14;;;;;;;5.87;2.03;;;;;;;;;;4972411;28;20208;-71
2022/04/07 13:56:42;;;;;;;10.33;2.53;;;;;;;;;;4989264;28;20201;-70
2022/04/07 13:59:09;;;;;;;10.70;2.87;;;;;;;;;;4970945;28;20260;-70
2022/04/07 14:01:37;;;;;;;5.67;2.60;;;;;;;;;;4980295;28;20201;-67
2022/04/07 14:04:04;;;;;;;13.60;2.43;;;;;;;;;;4990394;28;20207;-71
2022/04/07 14:06:32;;;;;;;11.13;2.93;;;;;;;;;;4990594;28;20193;-69
2022/04/07 14:09:01;;;;;;;10.67;2.73;;;;;;;;;;4969404;28;20676;-71
2022/04/07 14:11:30;;;;;;;11.57;3.00;;;;;;;;;;4968624;28;20235;-70
2022/04/07 14:13:59;;;;;;;10.77;3.33;;;;;;;;;;4990375;28;20272;-70
2022/04/07 14:16:27;;;;;;;8.50;2.83;;;;;;;;;;4971039;28;20206;-70
2022/04/07 14:18:54;;;;;;;14.47;3.40;;;;;;;;;;4971715;28;20209;-68
2022/04/07 14:21:22;;;;;;;7.73;2.37;;;;;;;;;;4972062;28;20207;-70
2022/04/07 14:23:54;;;;;;;10.77;3.67;;;;;;;;;;4972257;28;20198;-70
2022/04/07 14:26:23;;;;;;;17.53;2.30;;;;;;;;;;4969789;28;20198;-70
2022/04/07 14:28:51;;;;;;;5.70;2.00;;;;;;;;;;4974160;28;20201;-69
2022/04/07 14:31:19;;;;;;;6.30;3.07;;;;;;;;;;4973884;28;20230;-70
2022/04/07 14:33:46;;;;;;;11.60;2.17;;;;;;;;;;4979051;28;20233;-69
2022/04/07 14:36:14;;;;;;;24.73;2.40;;;;;;;;;;4972684;28;20702;-71
2022/04/07 14:38:42;;;;;;;16.17;2.83;;;;;;;;;;4975479;28;20227;-70
2022/04/07 14:41:10;;;;;;;14.40;3.53;;;;;;;;;;4975321;28;20298;-69
2022/04/07 14:43:50;;;;;;;9.80;2.70;;;;;;;;;;4986107;28;20218;-68
2022/04/07 14:46:18;;;;;;;9.30;2.60;;;;;;;;;;4978432;28;20206;-70
2022/04/07 14:48:46;;;;;;;10.03;2.33;;;;;;;;;;4977015;28;20690;-69
2022/04/07 14:51:14;;;;;;;5.83;1.47;;;;;;;;;;4984608;28;20229;-68